createdAt,value
2019-02-04T00:03:10.222Z,6.17
2019-02-04T00:08:14.253Z,6.00
2019-02-04T00:13:18.581Z,6.20
2019-02-04T00:18:22.342Z,6.17
2019-02-04T00:23:26.021Z,5.83
2019-02-04T00:28:29.699Z,6.77
2019-02-04T00:33:33.393Z,7.07
2019-02-04T00:38:37.231Z,6.20
2019-02-04T00:43:40.898Z,7.03
2019-02-04T00:48:44.583Z,7.27
2019-02-04T00:53:48.265Z,8.03
2019-02-04T00:58:51.948Z,8.57
2019-02-04T01:03:55.609Z,8.50
2019-02-04T01:08:59.293Z,8.90
2019-02-04T01:14:03.351Z,8.80
2019-02-04T01:19:07.370Z,8.73
2019-02-04T01:24:11.048Z,8.83
2019-02-04T01:29:14.731Z,9.77
2019-02-04T01:34:18.420Z,9.10
2019-02-04T01:39:22.367Z,9.13
2019-02-04T01:44:26.038Z,9.23
2019-02-04T01:49:30.181Z,9.37
2019-02-04T01:54:33.855Z,9.77
2019-02-04T01:59:37.529Z,9.70
2019-02-04T02:04:41.307Z,9.67
2019-02-04T02:09:44.991Z,10.07
2019-02-04T02:14:48.675Z,9.83
2019-02-04T02:19:52.371Z,9.97
2019-02-04T02:24:56.598Z,10.47
2019-02-04T02:30:00.608Z,10.40
2019-02-04T02:35:04.842Z,11.83
2019-02-04T02:40:13.073Z,10.87
2019-02-04T02:45:16.757Z,11.73
2019-02-04T02:50:20.542Z,11.03
2019-02-04T02:55:24.306Z,10.97
2019-02-04T03:00:28.413Z,12.00
2019-02-04T03:05:32.396Z,12.33
2019-02-04T03:10:36.163Z,11.47
2019-02-04T03:15:39.918Z,12.73
2019-02-04T03:20:43.635Z,11.83
2019-02-04T03:25:47.478Z,12.27
2019-02-04T03:30:51.169Z,12.43
2019-02-04T03:35:54.850Z,12.77
2019-02-04T03:40:58.554Z,13.40
2019-02-04T03:46:02.258Z,13.97
2019-02-04T03:51:06.030Z,13.40
2019-02-04T03:56:09.790Z,14.77
2019-02-04T04:01:13.478Z,16.20
2019-02-04T04:06:17.175Z,15.70
2019-02-04T04:11:20.854Z,16.73
2019-02-04T04:16:24.549Z,17.57
2019-02-04T04:21:28.230Z,16.83
2019-02-04T04:26:31.986Z,19.10
2019-02-04T04:31:35.838Z,19.47
2019-02-04T04:36:39.919Z,18.67
2019-02-04T04:41:43.666Z,19.40
2019-02-04T04:46:47.365Z,19.40
2019-02-04T04:51:55.201Z,18.87
2019-02-04T04:56:58.895Z,19.70
2019-02-04T05:02:02.573Z,20.90
2019-02-04T05:07:06.350Z,21.03
2019-02-04T05:12:10.517Z,20.43
2019-02-04T05:17:14.214Z,20.70
2019-02-04T05:22:17.893Z,22.23
2019-02-04T05:27:21.570Z,24.50
2019-02-04T05:32:25.543Z,21.47
2019-02-04T05:37:29.226Z,22.00
2019-02-04T05:42:34.715Z,21.47
2019-02-04T05:47:38.309Z,21.47
2019-02-04T05:52:42.070Z,20.10
2019-02-04T05:57:46.314Z,19.93
2019-02-04T06:02:50.010Z,20.33
2019-02-04T06:07:53.770Z,19.60
2019-02-04T06:12:57.475Z,18.00
2019-02-04T06:18:01.172Z,18.40
2019-02-04T06:23:04.846Z,19.30
2019-02-04T06:28:08.678Z,17.53
2019-02-04T06:33:12.363Z,17.20
2019-02-04T06:38:16.038Z,18.80
2019-02-04T06:43:19.735Z,18.80
2019-02-04T06:48:23.971Z,19.47
2019-02-04T06:53:27.647Z,19.20
2019-02-04T06:58:31.403Z,22.87
2019-02-04T07:03:35.402Z,20.23
2019-02-04T07:08:39.294Z,20.97
2019-02-04T07:13:43.062Z,20.33
2019-02-04T07:18:47.099Z,21.47
2019-02-04T07:23:50.769Z,18.70
2019-02-04T07:28:54.497Z,18.13
2019-02-04T07:33:58.254Z,19.53
2019-02-04T07:39:01.947Z,18.40
2019-02-04T07:44:07.986Z,17.67
2019-02-04T07:49:11.999Z,17.90
2019-02-04T07:54:15.716Z,16.23
2019-02-04T07:59:19.719Z,15.57
2019-02-04T08:04:23.402Z,15.90
2019-02-04T08:09:27.093Z,16.70
2019-02-04T08:14:31.150Z,15.30
2019-02-04T08:19:46.473Z,14.97
2019-02-04T08:24:40.271Z,14.97
2019-02-04T08:29:43.965Z,14.50
2019-02-04T08:34:47.787Z,14.20
2019-02-04T08:39:51.811Z,14.23
2019-02-04T08:44:55.786Z,22.03
2019-02-04T08:50:01.836Z,20.40
2019-02-04T08:55:08.735Z,15.30
2019-02-04T09:00:15.137Z,20.77
2019-02-04T09:05:19.785Z,18.13
2019-02-04T09:10:29.238Z,15.40
2019-02-04T09:15:33.138Z,14.60
2019-02-04T09:20:36.928Z,21.87
2019-02-04T09:26:00.000Z,15.03
2019-02-04T09:31:03.853Z,13.37
2019-02-04T09:36:07.779Z,14.00
2019-02-04T09:41:12.011Z,13.87
2019-02-04T09:46:16.015Z,12.20
2019-02-04T09:51:19.791Z,12.03
2019-02-04T09:56:23.574Z,12.13
2019-02-04T10:01:27.456Z,11.57
2019-02-04T10:06:31.319Z,11.10
2019-02-04T10:11:34.998Z,10.43
2019-02-04T10:16:38.674Z,9.87
2019-02-04T10:21:43.334Z,10.60
2019-02-04T10:26:47.598Z,9.63
2019-02-04T10:31:51.907Z,11.37
2019-02-04T10:36:55.966Z,9.13
2019-02-04T10:41:59.769Z,12.43
2019-02-04T10:47:03.571Z,9.87
2019-02-04T10:52:07.728Z,8.40
2019-02-04T10:57:11.451Z,8.70
2019-02-04T11:02:15.487Z,7.70
2019-02-04T11:07:19.558Z,8.47
2019-02-04T11:12:23.455Z,8.27
2019-02-04T11:17:27.433Z,7.93
2019-02-04T11:22:31.285Z,7.37
2019-02-04T11:27:35.003Z,8.00
2019-02-04T11:32:38.730Z,10.30
2019-02-04T11:37:42.869Z,7.87
2019-02-04T11:42:46.698Z,9.40
2019-02-04T11:47:50.823Z,8.17
2019-02-04T11:52:54.642Z,9.93
2019-02-04T11:57:59.366Z,7.33
2019-02-04T12:03:04.023Z,8.17
2019-02-04T12:08:07.973Z,6.23
2019-02-04T12:13:11.726Z,7.07
2019-02-04T12:18:15.414Z,27.77
2019-02-04T12:23:19.327Z,26.43
2019-02-04T12:28:23.017Z,14.20
2019-02-04T12:33:26.885Z,7.23
2019-02-04T12:38:31.022Z,6.23
2019-02-04T12:43:34.947Z,6.83
2019-02-04T12:48:38.639Z,17.90
2019-02-04T12:53:42.394Z,14.50
2019-02-04T12:58:55.403Z,9.10
2019-02-04T13:03:51.474Z,5.13
2019-02-04T13:08:55.148Z,5.57
2019-02-04T13:13:58.822Z,5.40
2019-02-04T13:19:02.510Z,5.37
2019-02-04T13:24:08.699Z,4.73
2019-02-04T13:29:12.459Z,4.33
2019-02-04T13:34:16.507Z,4.30
2019-02-04T13:39:20.562Z,5.00
2019-02-04T13:44:24.238Z,5.10
2019-02-04T13:49:42.004Z,4.60
2019-02-04T13:54:45.715Z,5.50
2019-02-04T13:59:49.428Z,4.40
2019-02-04T14:04:53.236Z,4.73
2019-02-04T14:09:59.067Z,4.50
2019-02-04T14:15:02.351Z,4.97
2019-02-04T14:20:08.466Z,4.40
2019-02-04T14:25:12.650Z,4.80
2019-02-04T14:30:19.609Z,4.40
2019-02-04T14:35:23.760Z,5.60
2019-02-04T14:40:28.136Z,10.37
2019-02-04T14:45:53.819Z,4.20
2019-02-04T14:51:17.496Z,3.77
2019-02-04T14:56:47.414Z,4.37
2019-02-04T15:02:34.398Z,4.80
2019-02-04T15:08:32.953Z,4.63
2019-02-04T15:14:05.265Z,4.70
2019-02-04T15:19:24.876Z,4.67
2019-02-04T15:24:44.145Z,4.10
2019-02-04T15:29:55.695Z,5.90
2019-02-04T15:35:35.963Z,5.53
2019-02-04T15:40:47.666Z,6.57
2019-02-04T15:46:09.802Z,4.33
2019-02-04T15:51:25.202Z,5.13
2019-02-04T15:56:29.266Z,5.83
2019-02-04T16:01:34.285Z,5.00
2019-02-04T16:06:38.029Z,4.70
2019-02-04T16:11:42.729Z,5.87
2019-02-04T16:16:49.202Z,5.70
2019-02-04T16:21:56.776Z,5.50
2019-02-04T16:27:02.982Z,6.37
2019-02-04T16:32:07.442Z,6.70
2019-02-04T16:37:11.186Z,7.03
2019-02-04T16:42:14.874Z,7.70
2019-02-04T16:47:18.551Z,8.17
2019-02-04T16:52:22.231Z,8.63
2019-02-04T16:57:25.922Z,9.60
2019-02-04T17:02:29.598Z,9.10
2019-02-04T17:07:33.354Z,9.23
2019-02-04T17:12:37.101Z,9.17
2019-02-04T17:17:41.107Z,9.27
2019-02-04T17:22:45.054Z,9.97
2019-02-04T17:27:48.783Z,10.20
2019-02-04T17:32:52.912Z,10.47
2019-02-04T17:37:56.779Z,10.17
2019-02-04T17:43:00.637Z,11.53
2019-02-04T17:48:05.413Z,11.23
2019-02-04T17:53:09.233Z,11.83
2019-02-04T17:58:14.772Z,12.70
2019-02-04T18:03:18.871Z,12.13
2019-02-04T18:08:22.701Z,13.80
2019-02-04T18:13:26.395Z,14.33
2019-02-04T18:18:30.910Z,13.67
2019-02-04T18:23:45.318Z,13.97
2019-02-04T18:28:40.346Z,15.17
2019-02-04T18:33:44.038Z,14.97
2019-02-04T18:38:47.792Z,16.30
2019-02-04T18:43:51.819Z,14.90
2019-02-04T18:48:55.603Z,14.80
2019-02-04T18:53:59.366Z,13.93
2019-02-04T18:59:03.172Z,14.30
2019-02-04T19:04:07.073Z,14.20
2019-02-04T19:09:11.388Z,15.37
2019-02-04T19:14:15.142Z,19.07
2019-02-04T19:19:19.138Z,18.17
2019-02-04T19:24:23.129Z,15.67
2019-02-04T19:29:27.026Z,14.47
2019-02-04T19:34:30.845Z,14.07
2019-02-04T19:39:35.099Z,15.07
2019-02-04T19:44:39.521Z,12.83
2019-02-04T19:49:43.498Z,13.17
2019-02-04T19:54:47.177Z,12.00
2019-02-04T19:59:50.855Z,11.87
2019-02-04T20:04:54.538Z,11.70
2019-02-04T20:09:58.922Z,11.43
2019-02-04T20:15:02.649Z,11.40
2019-02-04T20:20:07.144Z,12.27
2019-02-04T20:25:14.527Z,11.63
2019-02-04T20:30:24.682Z,11.27
2019-02-04T20:35:28.763Z,11.23
2019-02-04T20:40:32.683Z,10.93
2019-02-04T20:45:37.555Z,10.80
2019-02-04T20:50:42.757Z,10.70
2019-02-04T20:55:46.885Z,10.03
2019-02-04T21:00:50.625Z,10.43
2019-02-04T21:05:54.559Z,9.57
2019-02-04T21:10:58.370Z,10.47
2019-02-04T21:16:02.050Z,9.63
2019-02-04T21:21:06.110Z,9.13
2019-02-04T21:26:09.782Z,9.50
2019-02-04T21:31:13.467Z,10.10
2019-02-04T21:36:17.145Z,9.50
2019-02-04T21:41:20.830Z,10.10
2019-02-04T21:46:24.514Z,9.87
2019-02-04T21:51:28.194Z,10.13
2019-02-04T21:56:31.866Z,9.73
2019-02-04T22:01:35.544Z,9.97
2019-02-04T22:06:39.235Z,10.17
2019-02-04T22:11:42.926Z,9.30
2019-02-04T22:16:46.970Z,9.00
2019-02-04T22:21:51.087Z,9.27
2019-02-04T22:26:54.839Z,9.47
2019-02-04T22:31:58.593Z,9.73
2019-02-04T22:37:02.558Z,9.63
2019-02-04T22:42:06.603Z,9.57
2019-02-04T22:47:10.287Z,10.03
2019-02-04T22:52:13.969Z,10.47
2019-02-04T22:57:17.955Z,9.40
2019-02-04T23:02:21.736Z,9.23
2019-02-04T23:07:25.451Z,9.30
2019-02-04T23:12:29.206Z,9.53
2019-02-04T23:17:32.886Z,9.73
2019-02-04T23:22:36.654Z,8.63
2019-02-04T23:27:40.617Z,8.47
2019-02-04T23:32:44.727Z,9.30
2019-02-04T23:37:48.402Z,8.33
2019-02-04T23:42:52.160Z,8.63
2019-02-04T23:47:55.980Z,7.90
2019-02-04T23:52:59.653Z,8.17
2019-02-04T23:58:03.401Z,8.13
